sensor_id;sensor_type;location;lat;lon;timestamp;P1;durP1;ratioP1;P2;durP2;ratioP2
39540;SDS011;25219;52.244;21.006;2024-03-02T00:02:25;51.13;;;24.93;;
39540;SDS011;25219;52.244;21.006;2024-03-02T00:04:50;48.78;;;24.05;;
39540;SDS011;25219;52.244;21.006;2024-03-02T00:07:15;54.97;;;25.45;;
39540;SDS011;25219;52.244;21.006;2024-03-02T00:09:40;45.37;;;22.90;;
39540;SDS011;25219;52.244;21.006;2024-03-02T00:12:06;47.95;;;23.70;;
39540;SDS011;25219;52.244;21.006;2024-03-02T00:14:31;52.10;;;24.08;;
39540;SDS011;25219;52.244;21.006;2024-03-02T00:16:57;54.38;;;24.52;;
39540;SDS011;25219;52.244;21.006;2024-03-02T00:19:22;49.45;;;22.70;;
39540;SDS011;25219;52.244;21.006;2024-03-02T00:21:47;51.53;;;25.25;;
39540;SDS011;25219;52.244;21.006;2024-03-02T00:24:26;48.67;;;23.13;;
39540;SDS011;25219;52.244;21.006;2024-03-02T00:26:54;51.30;;;24.13;;
39540;SDS011;25219;52.244;21.006;2024-03-02T00:29:19;48.90;;;23.83;;
39540;SDS011;25219;52.244;21.006;2024-03-02T00:31:45;45.50;;;22.70;;
39540;SDS011;25219;52.244;21.006;2024-03-02T00:34:11;52.08;;;24.08;;
39540;SDS011;25219;52.244;21.006;2024-03-02T00:36:38;52.95;;;24.85;;
39540;SDS011;25219;52.244;21.006;2024-03-02T00:39:03;49.77;;;23.77;;
39540;SDS011;25219;52.244;21.006;2024-03-02T00:41:30;53.42;;;23.63;;
39540;SDS011;25219;52.244;21.006;2024-03-02T00:44:02;48.42;;;23.75;;
39540;SDS011;25219;52.244;21.006;2024-03-02T00:46:35;47.33;;;23.60;;
39540;SDS011;25219;52.244;21.006;2024-03-02T00:49:02;47.03;;;23.83;;
39540;SDS011;25219;52.244;21.006;2024-03-02T00:51:29;49.50;;;24.17;;
39540;SDS011;25219;52.244;21.006;2024-03-02T00:53:55;47.72;;;23.23;;
39540;SDS011;25219;52.244;21.006;2024-03-02T00:56:21;47.00;;;24.30;;
39540;SDS011;25219;52.244;21.006;2024-03-02T00:58:47;45.33;;;22.33;;
39540;SDS011;25219;52.244;21.006;2024-03-02T01:01:12;51.80;;;24.20;;
39540;SDS011;25219;52.244;21.006;2024-03-02T01:03:38;44.33;;;22.15;;
39540;SDS011;25219;52.244;21.006;2024-03-02T01:06:04;45.67;;;22.58;;
39540;SDS011;25219;52.244;21.006;2024-03-02T01:08:29;47.60;;;23.10;;
39540;SDS011;25219;52.244;21.006;2024-03-02T01:10:54;50.03;;;23.70;;
39540;SDS011;25219;52.244;21.006;2024-03-02T01:13:20;46.03;;;22.48;;
39540;SDS011;25219;52.244;21.006;2024-03-02T01:15:45;49.72;;;24.30;;
39540;SDS011;25219;52.244;21.006;2024-03-02T01:18:10;45.78;;;23.05;;
39540;SDS011;25219;52.244;21.006;2024-03-02T01:20:36;47.50;;;23.13;;
39540;SDS011;25219;52.244;21.006;2024-03-02T01:23:01;52.60;;;24.63;;
39540;SDS011;25219;52.244;21.006;2024-03-02T01:25:26;46.97;;;22.35;;
39540;SDS011;25219;52.244;21.006;2024-03-02T01:27:51;57.73;;;23.93;;
39540;SDS011;25219;52.244;21.006;2024-03-02T01:30:17;45.15;;;21.60;;
39540;SDS011;25219;52.244;21.006;2024-03-02T01:32:42;42.03;;;21.75;;
39540;SDS011;25219;52.244;21.006;2024-03-02T01:35:07;44.33;;;23.77;;
39540;SDS011;25219;52.244;21.006;2024-03-02T01:37:32;46.30;;;22.58;;
39540;SDS011;25219;52.244;21.006;2024-03-02T01:39:58;45.88;;;23.58;;
39540;SDS011;25219;52.244;21.006;2024-03-02T01:43:51;48.58;;;24.23;;
39540;SDS011;25219;52.244;21.006;2024-03-02T01:46:16;49.50;;;22.77;;
39540;SDS011;25219;52.244;21.006;2024-03-02T01:48:41;44.40;;;22.57;;
39540;SDS011;25219;52.244;21.006;2024-03-02T01:51:06;52.15;;;24.42;;
39540;SDS011;25219;52.244;21.006;2024-03-02T01:53:32;43.15;;;22.73;;
39540;SDS011;25219;52.244;21.006;2024-03-02T01:55:57;45.72;;;22.65;;
39540;SDS011;25219;52.244;21.006;2024-03-02T01:58:22;46.03;;;22.77;;
39540;SDS011;25219;52.244;21.006;2024-03-02T02:00:47;47.93;;;22.70;;
39540;SDS011;25219;52.244;21.006;2024-03-02T02:03:12;49.42;;;22.85;;
39540;SDS011;25219;52.244;21.006;2024-03-02T02:05:38;44.53;;;21.37;;
39540;SDS011;25219;52.244;21.006;2024-03-02T02:08:03;46.20;;;22.47;;
39540;SDS011;25219;52.244;21.006;2024-03-02T02:10:28;52.20;;;22.30;;
39540;SDS011;25219;52.244;21.006;2024-03-02T02:12:53;42.85;;;21.75;;
39540;SDS011;25219;52.244;21.006;2024-03-02T02:15:31;39.23;;;20.87;;
39540;SDS011;25219;52.244;21.006;2024-03-02T02:17:57;43.63;;;21.92;;
39540;SDS011;25219;52.244;21.006;2024-03-02T02:20:23;40.65;;;21.08;;
39540;SDS011;25219;52.244;21.006;2024-03-02T02:25:19;43.65;;;22.80;;
39540;SDS011;25219;52.244;21.006;2024-03-02T02:27:44;44.50;;;22.70;;
39540;SDS011;25219;52.244;21.006;2024-03-02T02:30:09;39.20;;;20.85;;
39540;SDS011;25219;52.244;21.006;2024-03-02T02:32:35;42.00;;;21.67;;
39540;SDS011;25219;52.244;21.006;2024-03-02T02:35:00;38.47;;;21.08;;
39540;SDS011;25219;52.244;21.006;2024-03-02T02:37:25;39.57;;;21.77;;
39540;SDS011;25219;52.244;21.006;2024-03-02T02:39:50;40.90;;;21.17;;
39540;SDS011;25219;52.244;21.006;2024-03-02T02:42:15;39.93;;;20.87;;
39540;SDS011;25219;52.244;21.006;2024-03-02T02:44:41;41.85;;;21.55;;
39540;SDS011;25219;52.244;21.006;2024-03-02T02:47:06;39.42;;;21.02;;
39540;SDS011;25219;52.244;21.006;2024-03-02T02:49:31;46.60;;;22.00;;
39540;SDS011;25219;52.244;21.006;2024-03-02T02:51:56;39.60;;;21.02;;
39540;SDS011;25219;52.244;21.006;2024-03-02T02:54:21;41.13;;;21.20;;
39540;SDS011;25219;52.244;21.006;2024-03-02T02:56:46;40.53;;;21.33;;
39540;SDS011;25219;52.244;21.006;2024-03-02T02:59:12;42.00;;;21.47;;
39540;SDS011;25219;52.244;21.006;2024-03-02T03:01:37;38.00;;;20.73;;
39540;SDS011;25219;52.244;21.006;2024-03-02T03:04:02;46.93;;;21.43;;
39540;SDS011;25219;52.244;21.006;2024-03-02T03:06:27;46.07;;;21.37;;
39540;SDS011;25219;52.244;21.006;2024-03-02T03:08:52;43.30;;;20.73;;
39540;SDS011;25219;52.244;21.006;2024-03-02T03:11:17;43.27;;;20.17;;
39540;SDS011;25219;52.244;21.006;2024-03-02T03:13:43;41.07;;;19.63;;
39540;SDS011;25219;52.244;21.006;2024-03-02T03:16:08;40.03;;;20.30;;
39540;SDS011;25219;52.244;21.006;2024-03-02T03:18:33;40.77;;;20.07;;
39540;SDS011;25219;52.244;21.006;2024-03-02T03:20:58;43.63;;;21.00;;
39540;SDS011;25219;52.244;21.006;2024-03-02T03:23:23;36.70;;;19.10;;
39540;SDS011;25219;52.244;21.006;2024-03-02T03:25:49;38.85;;;19.83;;
39540;SDS011;25219;52.244;21.006;2024-03-02T03:28:14;34.97;;;18.90;;
39540;SDS011;25219;52.244;21.006;2024-03-02T03:30:39;41.65;;;20.13;;
39540;SDS011;25219;52.244;21.006;2024-03-02T03:33:05;36.57;;;19.83;;
39540;SDS011;25219;52.244;21.006;2024-03-02T03:35:33;41.63;;;19.58;;
39540;SDS011;25219;52.244;21.006;2024-03-02T03:37:58;40.20;;;20.75;;
39540;SDS011;25219;52.244;21.006;2024-03-02T03:40:24;36.92;;;20.20;;
39540;SDS011;25219;52.244;21.006;2024-03-02T03:42:49;37.95;;;20.38;;
39540;SDS011;25219;52.244;21.006;2024-03-02T03:45:15;41.35;;;20.83;;
39540;SDS011;25219;52.244;21.006;2024-03-02T03:47:40;35.95;;;19.63;;
39540;SDS011;25219;52.244;21.006;2024-03-02T03:50:05;44.38;;;20.27;;
39540;SDS011;25219;52.244;21.006;2024-03-02T03:52:32;40.95;;;19.58;;
39540;SDS011;25219;52.244;21.006;2024-03-02T03:54:57;40.55;;;20.05;;
39540;SDS011;25219;52.244;21.006;2024-03-02T03:57:22;38.50;;;19.47;;
39540;SDS011;25219;52.244;21.006;2024-03-02T03:59:47;39.60;;;19.97;;
39540;SDS011;25219;52.244;21.006;2024-03-02T04:02:12;43.33;;;20.70;;
39540;SDS011;25219;52.244;21.006;2024-03-02T04:04:38;39.10;;;19.93;;
39540;SDS011;25219;52.244;21.006;2024-03-02T04:07:03;41.90;;;20.83;;
39540;SDS011;25219;52.244;21.006;2024-03-02T04:09:28;39.45;;;20.48;;
39540;SDS011;25219;52.244;21.006;2024-03-02T04:11:53;39.37;;;21.10;;
39540;SDS011;25219;52.244;21.006;2024-03-02T04:14:19;39.08;;;20.45;;
39540;SDS011;25219;52.244;21.006;2024-03-02T04:16:44;42.53;;;21.37;;
39540;SDS011;25219;52.244;21.006;2024-03-02T04:19:09;43.73;;;21.23;;
39540;SDS011;25219;52.244;21.006;2024-03-02T04:21:34;42.17;;;20.52;;
39540;SDS011;25219;52.244;21.006;2024-03-02T04:23:59;40.13;;;19.80;;
39540;SDS011;25219;52.244;21.006;2024-03-02T04:26:25;40.33;;;20.40;;
39540;SDS011;25219;52.244;21.006;2024-03-02T04:28:51;45.03;;;21.02;;
39540;SDS011;25219;52.244;21.006;2024-03-02T04:31:16;45.35;;;21.80;;
39540;SDS011;25219;52.244;21.006;2024-03-02T04:33:41;46.05;;;21.40;;
39540;SDS011;25219;52.244;21.006;2024-03-02T04:36:07;36.67;;;19.20;;
39540;SDS011;25219;52.244;21.006;2024-03-02T04:38:34;42.72;;;21.33;;
39540;SDS011;25219;52.244;21.006;2024-03-02T04:40:59;43.27;;;20.87;;
39540;SDS011;25219;52.244;21.006;2024-03-02T04:43:24;41.58;;;20.20;;
39540;SDS011;25219;52.244;21.006;2024-03-02T04:45:49;39.15;;;20.52;;
39540;SDS011;25219;52.244;21.006;2024-03-02T04:48:14;42.00;;;20.30;;
39540;SDS011;25219;52.244;21.006;2024-03-02T04:50:40;51.25;;;22.15;;
39540;SDS011;25219;52.244;21.006;2024-03-02T04:53:05;49.80;;;21.65;;
39540;SDS011;25219;52.244;21.006;2024-03-02T04:55:30;41.30;;;19.73;;
39540;SDS011;25219;52.244;21.006;2024-03-02T04:57:58;40.33;;;20.45;;
39540;SDS011;25219;52.244;21.006;2024-03-02T05:00:24;44.00;;;22.07;;
39540;SDS011;25219;52.244;21.006;2024-03-02T05:02:49;41.73;;;19.67;;
39540;SDS011;25219;52.244;21.006;2024-03-02T05:05:14;42.07;;;21.10;;
39540;SDS011;25219;52.244;21.006;2024-03-02T05:07:42;45.75;;;21.92;;
39540;SDS011;25219;52.244;21.006;2024-03-02T05:10:09;47.70;;;22.77;;
39540;SDS011;25219;52.244;21.006;2024-03-02T05:12:34;44.72;;;20.13;;
39540;SDS011;25219;52.244;21.006;2024-03-02T05:17:50;41.25;;;20.60;;
39540;SDS011;25219;52.244;21.006;2024-03-02T05:20:16;43.35;;;20.70;;
39540;SDS011;25219;52.244;21.006;2024-03-02T05:22:42;43.78;;;20.02;;
39540;SDS011;25219;52.244;21.006;2024-03-02T05:25:07;43.80;;;20.60;;
39540;SDS011;25219;52.244;21.006;2024-03-02T05:27:32;48.25;;;21.23;;
39540;SDS011;25219;52.244;21.006;2024-03-02T05:29:58;38.42;;;19.40;;
39540;SDS011;25219;52.244;21.006;2024-03-02T05:32:23;37.47;;;18.65;;
39540;SDS011;25219;52.244;21.006;2024-03-02T05:34:48;45.73;;;21.20;;
39540;SDS011;25219;52.244;21.006;2024-03-02T05:37:13;40.53;;;18.98;;
39540;SDS011;25219;52.244;21.006;2024-03-02T05:39:38;36.75;;;19.15;;
39540;SDS011;25219;52.244;21.006;2024-03-02T05:42:03;40.60;;;19.10;;
39540;SDS011;25219;52.244;21.006;2024-03-02T05:44:29;37.10;;;19.00;;
39540;SDS011;25219;52.244;21.006;2024-03-02T05:46:54;42.67;;;20.52;;
39540;SDS011;25219;52.244;21.006;2024-03-02T05:49:19;36.50;;;18.95;;
39540;SDS011;25219;52.244;21.006;2024-03-02T05:51:44;44.53;;;20.93;;
39540;SDS011;25219;52.244;21.006;2024-03-02T05:54:10;40.27;;;19.60;;
39540;SDS011;25219;52.244;21.006;2024-03-02T05:56:35;40.17;;;20.87;;
39540;SDS011;25219;52.244;21.006;2024-03-02T05:59:00;44.42;;;19.50;;
39540;SDS011;25219;52.244;21.006;2024-03-02T06:01:37;43.35;;;20.17;;
39540;SDS011;25219;52.244;21.006;2024-03-02T06:04:02;41.90;;;20.42;;
39540;SDS011;25219;52.244;21.006;2024-03-02T06:06:27;34.97;;;18.23;;
39540;SDS011;25219;52.244;21.006;2024-03-02T06:08:53;41.47;;;19.70;;
39540;SDS011;25219;52.244;21.006;2024-03-02T06:11:21;40.90;;;20.57;;
39540;SDS011;25219;52.244;21.006;2024-03-02T06:13:46;40.13;;;18.75;;
39540;SDS011;25219;52.244;21.006;2024-03-02T06:16:11;41.37;;;19.17;;
39540;SDS011;25219;52.244;21.006;2024-03-02T06:18:36;38.38;;;18.17;;
39540;SDS011;25219;52.244;21.006;2024-03-02T06:21:02;40.13;;;19.85;;
39540;SDS011;25219;52.244;21.006;2024-03-02T06:23:27;37.97;;;18.13;;
39540;SDS011;25219;52.244;21.006;2024-03-02T06:25:53;36.50;;;17.73;;
39540;SDS011;25219;52.244;21.006;2024-03-02T06:28:18;40.93;;;19.17;;
39540;SDS011;25219;52.244;21.006;2024-03-02T06:30:43;36.78;;;18.10;;
39540;SDS011;25219;52.244;21.006;2024-03-02T06:33:08;37.47;;;18.90;;
39540;SDS011;25219;52.244;21.006;2024-03-02T06:35:34;42.20;;;17.75;;
39540;SDS011;25219;52.244;21.006;2024-03-02T06:38:00;34.83;;;18.02;;
39540;SDS011;25219;52.244;21.006;2024-03-02T06:40:25;36.80;;;18.60;;
39540;SDS011;25219;52.244;21.006;2024-03-02T06:42:50;38.92;;;17.77;;
39540;SDS011;25219;52.244;21.006;2024-03-02T06:45:15;39.90;;;17.60;;
39540;SDS011;25219;52.244;21.006;2024-03-02T06:47:40;39.97;;;19.03;;
39540;SDS011;25219;52.244;21.006;2024-03-02T06:50:06;32.93;;;17.13;;
39540;SDS011;25219;52.244;21.006;2024-03-02T06:52:32;40.08;;;18.27;;
39540;SDS011;25219;52.244;21.006;2024-03-02T06:54:57;35.30;;;16.80;;
39540;SDS011;25219;52.244;21.006;2024-03-02T06:57:22;33.80;;;16.90;;
39540;SDS011;25219;52.244;21.006;2024-03-02T06:59:49;38.72;;;17.40;;
39540;SDS011;25219;52.244;21.006;2024-03-02T07:02:16;37.30;;;18.55;;
39540;SDS011;25219;52.244;21.006;2024-03-02T07:04:41;38.85;;;18.65;;
39540;SDS011;25219;52.244;21.006;2024-03-02T07:07:06;40.83;;;19.73;;
39540;SDS011;25219;52.244;21.006;2024-03-02T07:09:31;36.93;;;17.73;;
39540;SDS011;25219;52.244;21.006;2024-03-02T07:11:56;35.27;;;16.97;;
39540;SDS011;25219;52.244;21.006;2024-03-02T07:14:22;34.47;;;16.30;;
39540;SDS011;25219;52.244;21.006;2024-03-02T07:17:02;35.03;;;17.33;;
39540;SDS011;25219;52.244;21.006;2024-03-02T07:19:27;40.57;;;17.57;;
39540;SDS011;25219;52.244;21.006;2024-03-02T07:21:52;42.45;;;18.50;;
39540;SDS011;25219;52.244;21.006;2024-03-02T07:24:18;34.47;;;17.05;;
39540;SDS011;25219;52.244;21.006;2024-03-02T07:26:43;34.70;;;16.33;;
39540;SDS011;25219;52.244;21.006;2024-03-02T07:29:08;35.33;;;18.08;;
39540;SDS011;25219;52.244;21.006;2024-03-02T07:31:34;35.47;;;16.60;;
39540;SDS011;25219;52.244;21.006;2024-03-02T07:34:00;37.80;;;16.58;;
39540;SDS011;25219;52.244;21.006;2024-03-02T07:36:25;39.38;;;17.98;;
39540;SDS011;25219;52.244;21.006;2024-03-02T07:38:50;34.50;;;16.40;;
39540;SDS011;25219;52.244;21.006;2024-03-02T07:41:16;37.57;;;16.47;;
39540;SDS011;25219;52.244;21.006;2024-03-02T07:43:41;33.13;;;15.70;;
39540;SDS011;25219;52.244;21.006;2024-03-02T07:46:06;43.17;;;17.13;;
39540;SDS011;25219;52.244;21.006;2024-03-02T07:48:32;35.35;;;16.25;;
39540;SDS011;25219;52.244;21.006;2024-03-02T07:50:57;37.25;;;16.25;;
39540;SDS011;25219;52.244;21.006;2024-03-02T07:53:22;33.90;;;16.10;;
39540;SDS011;25219;52.244;21.006;2024-03-02T07:55:47;35.47;;;15.77;;
39540;SDS011;25219;52.244;21.006;2024-03-02T07:58:13;36.33;;;16.55;;
39540;SDS011;25219;52.244;21.006;2024-03-02T08:00:41;37.53;;;16.87;;
39540;SDS011;25219;52.244;21.006;2024-03-02T08:03:06;37.42;;;16.75;;
39540;SDS011;25219;52.244;21.006;2024-03-02T08:05:31;39.92;;;16.85;;
39540;SDS011;25219;52.244;21.006;2024-03-02T08:07:56;35.73;;;16.10;;
39540;SDS011;25219;52.244;21.006;2024-03-02T08:10:22;34.17;;;14.37;;
39540;SDS011;25219;52.244;21.006;2024-03-02T08:12:47;33.20;;;15.32;;
39540;SDS011;25219;52.244;21.006;2024-03-02T08:15:12;34.37;;;16.47;;
39540;SDS011;25219;52.244;21.006;2024-03-02T08:17:38;30.02;;;15.32;;
39540;SDS011;25219;52.244;21.006;2024-03-02T08:20:05;41.33;;;16.70;;
39540;SDS011;25219;52.244;21.006;2024-03-02T08:22:31;38.53;;;16.60;;
39540;SDS011;25219;52.244;21.006;2024-03-02T08:24:56;36.40;;;15.73;;
39540;SDS011;25219;52.244;21.006;2024-03-02T08:27:21;36.17;;;16.23;;
39540;SDS011;25219;52.244;21.006;2024-03-02T08:29:47;34.47;;;15.27;;
39540;SDS011;25219;52.244;21.006;2024-03-02T08:32:12;30.03;;;14.13;;
39540;SDS011;25219;52.244;21.006;2024-03-02T08:34:37;35.20;;;15.40;;
39540;SDS011;25219;52.244;21.006;2024-03-02T08:37:02;30.50;;;15.47;;
39540;SDS011;25219;52.244;21.006;2024-03-02T08:39:28;37.58;;;16.00;;
39540;SDS011;25219;52.244;21.006;2024-03-02T08:41:53;33.87;;;14.83;;
39540;SDS011;25219;52.244;21.006;2024-03-02T08:44:19;34.30;;;15.30;;
39540;SDS011;25219;52.244;21.006;2024-03-02T08:46:44;32.97;;;15.73;;
39540;SDS011;25219;52.244;21.006;2024-03-02T08:49:09;33.57;;;15.03;;
39540;SDS011;25219;52.244;21.006;2024-03-02T08:51:35;37.35;;;15.05;;
39540;SDS011;25219;52.244;21.006;2024-03-02T08:54:00;39.72;;;14.90;;
39540;SDS011;25219;52.244;21.006;2024-03-02T08:56:25;37.40;;;15.57;;
39540;SDS011;25219;52.244;21.006;2024-03-02T08:58:51;39.57;;;15.43;;
39540;SDS011;25219;52.244;21.006;2024-03-02T09:01:16;33.47;;;15.73;;
39540;SDS011;25219;52.244;21.006;2024-03-02T09:03:42;40.67;;;16.98;;
39540;SDS011;25219;52.244;21.006;2024-03-02T09:06:09;37.30;;;16.58;;
39540;SDS011;25219;52.244;21.006;2024-03-02T09:08:34;35.35;;;15.73;;
39540;SDS011;25219;52.244;21.006;2024-03-02T09:11:01;37.78;;;16.23;;
39540;SDS011;25219;52.244;21.006;2024-03-02T09:13:26;37.47;;;15.90;;
39540;SDS011;25219;52.244;21.006;2024-03-02T09:15:51;34.93;;;15.63;;
39540;SDS011;25219;52.244;21.006;2024-03-02T09:18:16;39.70;;;16.93;;
39540;SDS011;25219;52.244;21.006;2024-03-02T09:20:42;32.47;;;15.20;;
39540;SDS011;25219;52.244;21.006;2024-03-02T09:23:07;35.67;;;16.87;;
39540;SDS011;25219;52.244;21.006;2024-03-02T09:25:32;37.20;;;17.07;;
39540;SDS011;25219;52.244;21.006;2024-03-02T09:27:57;31.07;;;16.27;;
39540;SDS011;25219;52.244;21.006;2024-03-02T09:30:22;40.03;;;16.27;;
39540;SDS011;25219;52.244;21.006;2024-03-02T09:32:48;38.70;;;16.50;;
39540;SDS011;25219;52.244;21.006;2024-03-02T09:35:13;35.22;;;15.60;;
39540;SDS011;25219;52.244;21.006;2024-03-02T09:37:38;37.73;;;18.00;;
39540;SDS011;25219;52.244;21.006;2024-03-02T09:40:03;38.85;;;17.17;;
39540;SDS011;25219;52.244;21.006;2024-03-02T09:42:29;35.85;;;17.00;;
39540;SDS011;25219;52.244;21.006;2024-03-02T09:44:54;37.93;;;15.93;;
39540;SDS011;25219;52.244;21.006;2024-03-02T09:47:20;30.10;;;15.38;;
39540;SDS011;25219;52.244;21.006;2024-03-02T09:49:45;32.07;;;15.67;;
39540;SDS011;25219;52.244;21.006;2024-03-02T09:52:10;26.75;;;14.55;;
39540;SDS011;25219;52.244;21.006;2024-03-02T09:54:35;37.30;;;16.47;;
39540;SDS011;25219;52.244;21.006;2024-03-02T09:57:00;33.50;;;15.40;;
39540;SDS011;25219;52.244;21.006;2024-03-02T09:59:27;35.33;;;16.42;;
39540;SDS011;25219;52.244;21.006;2024-03-02T10:01:59;32.97;;;16.42;;
39540;SDS011;25219;52.244;21.006;2024-03-02T10:04:28;34.55;;;15.48;;
39540;SDS011;25219;52.244;21.006;2024-03-02T10:07:12;34.63;;;15.60;;
39540;SDS011;25219;52.244;21.006;2024-03-02T10:09:38;34.17;;;15.20;;
39540;SDS011;25219;52.244;21.006;2024-03-02T10:12:10;35.45;;;15.85;;
39540;SDS011;25219;52.244;21.006;2024-03-02T10:14:36;34.95;;;16.40;;
39540;SDS011;25219;52.244;21.006;2024-03-02T10:17:05;38.03;;;17.77;;
39540;SDS011;25219;52.244;21.006;2024-03-02T10:19:31;30.52;;;15.10;;
39540;SDS011;25219;52.244;21.006;2024-03-02T10:21:58;40.75;;;17.67;;
39540;SDS011;25219;52.244;21.006;2024-03-02T10:24:24;31.70;;;16.63;;
39540;SDS011;25219;52.244;21.006;2024-03-02T10:26:50;35.90;;;16.52;;
39540;SDS011;25219;52.244;21.006;2024-03-02T10:29:15;33.35;;;15.70;;
39540;SDS011;25219;52.244;21.006;2024-03-02T10:31:44;38.38;;;16.85;;
39540;SDS011;25219;52.244;21.006;2024-03-02T10:34:13;37.85;;;16.55;;
39540;SDS011;25219;52.244;21.006;2024-03-02T10:36:42;35.33;;;16.75;;
39540;SDS011;25219;52.244;21.006;2024-03-02T10:39:25;33.50;;;16.45;;
39540;SDS011;25219;52.244;21.006;2024-03-02T10:41:59;38.38;;;17.02;;
39540;SDS011;25219;52.244;21.006;2024-03-02T10:44:25;40.83;;;17.38;;
39540;SDS011;25219;52.244;21.006;2024-03-02T10:46:50;40.65;;;17.33;;
39540;SDS011;25219;52.244;21.006;2024-03-02T10:49:24;35.75;;;16.98;;
39540;SDS011;25219;52.244;21.006;2024-03-02T10:57:52;36.95;;;17.08;;
39540;SDS011;25219;52.244;21.006;2024-03-02T11:00:22;32.28;;;16.73;;
39540;SDS011;25219;52.244;21.006;2024-03-02T11:02:52;37.40;;;17.08;;
39540;SDS011;25219;52.244;21.006;2024-03-02T11:05:27;35.45;;;17.48;;
39540;SDS011;25219;52.244;21.006;2024-03-02T11:08:17;42.42;;;16.83;;
39540;SDS011;25219;52.244;21.006;2024-03-02T11:10:41;42.17;;;17.77;;
39540;SDS011;25219;52.244;21.006;2024-03-02T11:13:12;40.88;;;17.33;;
39540;SDS011;25219;52.244;21.006;2024-03-02T11:15:37;37.63;;;18.58;;
39540;SDS011;25219;52.244;21.006;2024-03-02T11:18:05;36.20;;;17.77;;
39540;SDS011;25219;52.244;21.006;2024-03-02T11:20:33;41.65;;;18.80;;
39540;SDS011;25219;52.244;21.006;2024-03-02T11:23:04;38.30;;;17.95;;
39540;SDS011;25219;52.244;21.006;2024-03-02T11:25:31;37.58;;;17.98;;
39540;SDS011;25219;52.244;21.006;2024-03-02T11:28:02;41.10;;;18.60;;
39540;SDS011;25219;52.244;21.006;2024-03-02T11:33:03;39.87;;;18.57;;
39540;SDS011;25219;52.244;21.006;2024-03-02T11:35:32;41.15;;;19.55;;
39540;SDS011;25219;52.244;21.006;2024-03-02T11:37:57;41.08;;;20.23;;
39540;SDS011;25219;52.244;21.006;2024-03-02T11:40:27;43.10;;;20.50;;
39540;SDS011;25219;52.244;21.006;2024-03-02T11:42:52;45.63;;;21.48;;
39540;SDS011;25219;52.244;21.006;2024-03-02T11:45:22;41.30;;;19.65;;
39540;SDS011;25219;52.244;21.006;2024-03-02T11:47:50;45.15;;;22.52;;
39540;SDS011;25219;52.244;21.006;2024-03-02T11:50:16;42.30;;;21.17;;
39540;SDS011;25219;52.244;21.006;2024-03-02T11:52:53;49.42;;;22.75;;
39540;SDS011;25219;52.244;21.006;2024-03-02T11:55:18;43.50;;;22.60;;
39540;SDS011;25219;52.244;21.006;2024-03-02T11:57:44;44.42;;;22.05;;
39540;SDS011;25219;52.244;21.006;2024-03-02T12:00:19;46.95;;;23.02;;
39540;SDS011;25219;52.244;21.006;2024-03-02T12:02:48;46.53;;;22.77;;
39540;SDS011;25219;52.244;21.006;2024-03-02T12:05:24;41.75;;;20.92;;
39540;SDS011;25219;52.244;21.006;2024-03-02T12:07:49;47.63;;;22.47;;
39540;SDS011;25219;52.244;21.006;2024-03-02T12:10:20;46.95;;;22.40;;
39540;SDS011;25219;52.244;21.006;2024-03-02T12:12:45;46.10;;;24.70;;
39540;SDS011;25219;52.244;21.006;2024-03-02T12:15:10;44.17;;;23.30;;
39540;SDS011;25219;52.244;21.006;2024-03-02T12:17:35;46.87;;;24.77;;
39540;SDS011;25219;52.244;21.006;2024-03-02T12:20:00;55.83;;;24.02;;
39540;SDS011;25219;52.244;21.006;2024-03-02T12:22:28;48.97;;;23.63;;
39540;SDS011;25219;52.244;21.006;2024-03-02T12:24:54;53.28;;;25.73;;
39540;SDS011;25219;52.244;21.006;2024-03-02T12:27:19;48.20;;;23.67;;
39540;SDS011;25219;52.244;21.006;2024-03-02T12:29:48;49.90;;;24.05;;
39540;SDS011;25219;52.244;21.006;2024-03-02T12:32:13;48.83;;;24.48;;
39540;SDS011;25219;52.244;21.006;2024-03-02T12:34:42;45.15;;;24.17;;
39540;SDS011;25219;52.244;21.006;2024-03-02T12:37:07;44.33;;;25.23;;
39540;SDS011;25219;52.244;21.006;2024-03-02T12:39:34;47.63;;;23.73;;
39540;SDS011;25219;52.244;21.006;2024-03-02T12:42:02;42.85;;;23.95;;
39540;SDS011;25219;52.244;21.006;2024-03-02T12:44:27;43.30;;;24.42;;
39540;SDS011;25219;52.244;21.006;2024-03-02T12:46:53;46.97;;;23.85;;
39540;SDS011;25219;52.244;21.006;2024-03-02T12:49:21;44.97;;;23.13;;
39540;SDS011;25219;52.244;21.006;2024-03-02T12:51:47;46.58;;;23.58;;
39540;SDS011;25219;52.244;21.006;2024-03-02T12:54:16;42.70;;;22.83;;
39540;SDS011;25219;52.244;21.006;2024-03-02T12:56:42;40.80;;;22.05;;
39540;SDS011;25219;52.244;21.006;2024-03-02T12:59:20;42.47;;;22.52;;
39540;SDS011;25219;52.244;21.006;2024-03-02T13:04:21;47.40;;;22.98;;
39540;SDS011;25219;52.244;21.006;2024-03-02T13:06:46;44.53;;;23.35;;
39540;SDS011;25219;52.244;21.006;2024-03-02T13:09:11;41.73;;;22.70;;
39540;SDS011;25219;52.244;21.006;2024-03-02T13:11:39;45.00;;;23.17;;
39540;SDS011;25219;52.244;21.006;2024-03-02T13:14:05;43.30;;;23.48;;
39540;SDS011;25219;52.244;21.006;2024-03-02T13:16:30;45.20;;;23.80;;
39540;SDS011;25219;52.244;21.006;2024-03-02T13:18:57;44.17;;;24.27;;
39540;SDS011;25219;52.244;21.006;2024-03-02T13:21:23;44.38;;;22.00;;
39540;SDS011;25219;52.244;21.006;2024-03-02T13:23:53;48.08;;;22.95;;
39540;SDS011;25219;52.244;21.006;2024-03-02T13:26:37;45.15;;;22.85;;
39540;SDS011;25219;52.244;21.006;2024-03-02T13:29:03;45.08;;;23.15;;
39540;SDS011;25219;52.244;21.006;2024-03-02T13:31:28;43.75;;;23.13;;
39540;SDS011;25219;52.244;21.006;2024-03-02T13:33:53;49.60;;;24.33;;
39540;SDS011;25219;52.244;21.006;2024-03-02T13:36:18;43.22;;;23.13;;
39540;SDS011;25219;52.244;21.006;2024-03-02T13:38:44;41.17;;;24.50;;
39540;SDS011;25219;52.244;21.006;2024-03-02T13:41:09;46.30;;;25.77;;
39540;SDS011;25219;52.244;21.006;2024-03-02T13:43:35;46.17;;;24.77;;
39540;SDS011;25219;52.244;21.006;2024-03-02T13:46:02;42.55;;;23.95;;
39540;SDS011;25219;52.244;21.006;2024-03-02T13:48:28;43.15;;;24.67;;
39540;SDS011;25219;52.244;21.006;2024-03-02T13:50:53;47.50;;;25.30;;
39540;SDS011;25219;52.244;21.006;2024-03-02T13:53:18;44.40;;;23.80;;
39540;SDS011;25219;52.244;21.006;2024-03-02T13:55:44;45.83;;;24.83;;
39540;SDS011;25219;52.244;21.006;2024-03-02T13:58:09;47.65;;;24.80;;
39540;SDS011;25219;52.244;21.006;2024-03-02T14:00:35;44.05;;;25.13;;
39540;SDS011;25219;52.244;21.006;2024-03-02T14:03:00;48.47;;;24.50;;
39540;SDS011;25219;52.244;21.006;2024-03-02T14:05:26;53.50;;;24.60;;
39540;SDS011;25219;52.244;21.006;2024-03-02T14:07:51;47.77;;;25.50;;
39540;SDS011;25219;52.244;21.006;2024-03-02T14:10:16;44.93;;;23.67;;
39540;SDS011;25219;52.244;21.006;2024-03-02T14:12:42;56.28;;;26.75;;
39540;SDS011;25219;52.244;21.006;2024-03-02T14:15:08;49.40;;;25.33;;
39540;SDS011;25219;52.244;21.006;2024-03-02T14:17:33;45.10;;;23.38;;
39540;SDS011;25219;52.244;21.006;2024-03-02T14:19:59;56.42;;;27.83;;
39540;SDS011;25219;52.244;21.006;2024-03-02T14:22:24;47.80;;;24.97;;